Franklin Grove, IL

5:23 PM CST on February 12, 2016 (GMT -0600)
Lost Lake Ogle County, Illinois | | Change Station
CLOSE
Current Station
Personal Weather Station
Location: Dixon, IL
Elevation: 761 ft
Nearby Weather Stations
Active Advisory: Wind Chill Advisory

Elev 761 ft 41.91 °N, 89.35 °W | Updated 31 seconds ago

Partly Cloudy
Partly Cloudy
17.2 °F
Feels Like 9 °F
N
6.0
Wind Variable Wind from West
Gusts 7.0 mph

Today
High -- | Low -- °F
--% Chance of Precip.
Yesterday
High -- | Low -- °F
Precip. -- in
Pressure 30.30 in
Visibility 10.0 miles
Clouds Mostly Cloudy 4400 ft
Windchill 9 °F
Dew Point 4 °F
Humidity 55%
Rainfall 0.00 in
Snow Depth Not available.
6:57 AM 5:26 PM
Waxing Crescent, 24% visible
METAR KRPJ 122315Z AUTO 30015G20KT 10SM BKN044 M08/M16 A3030 RMK AO2 T10761157
Pressure 30.30 in
Visibility 10.0 miles
Clouds Mostly Cloudy 4400 ft
Windchill 9 °F
Dew Point 4 °F
Humidity 55%
Rainfall 0.00 in
Snow Depth Not available.
6:57 AM 5:26 PM
Waxing Crescent, 24% visible
METAR KRPJ 122315Z AUTO 30015G20KT 10SM BKN044 M08/M16 A3030 RMK AO2 T10761157

10-Day Weather Forecast

Almanac

Astronomy

Feb. 12, 2016 Rise Set
Actual Time
Civil Twilight
Nautical Twilight
Astronomical Twilight
Moon
Length of Visible Light
Length of Day
Tomorrow will be .
, % of the Moon is Illuminated

Today's Extremes

State Highs State Lows

Community

WunderPhotos

Upload Photos

1,892,436 photos uploaded!

WunderBlog® & News

Nearby

Air Quality

  Air Quality AQ Index Pollutant
Not available.

Snow Depth

Station Depth Elevation

Earthquake Activity

City Distance Mag. Time & Date
Minimum magnitude displayed is 2.5.

Coastal Water Temperatures

Place Temperature

Stations

Nearby Weather Stations

Station Location Temp. Windchill Dew Point Humidity Wind Precip. Elev Updated Type
                   

Watches & Warnings

Wind Chill Advisory
Issued: 2:49 PM CST Feb. 12, 2016 – National Weather Service

... Wind Chill Advisory remains in effect from midnight tonight to
9 am CST Saturday...

* wind chill values... around 20 below zero.

* Other impacts... bitter cold wind chills can cause frostbite to
exposed skin in as little as 30 minutes.

Precautionary/preparedness actions...

A Wind Chill Advisory means that the wind will combine with the
very cold air to generate low wind chills. This will result in
frost bite and lead to hypothermia if precautions are not taken.
If you must venture outdoors... make sure you wear a hat and
gloves.



Kjb